createdAt,value
2023-03-24T00:01:54.825Z,98897.44
2023-03-24T00:04:25.158Z,98905.25
2023-03-24T00:06:54.100Z,98897.44
2023-03-24T00:09:21.667Z,98892.25
2023-03-24T00:11:49.470Z,98893.09
2023-03-24T00:14:16.956Z,98887.00
2023-03-24T00:16:45.748Z,98897.44
2023-03-24T00:19:15.103Z,98890.53
2023-03-24T00:21:43.687Z,98896.63
2023-03-24T00:24:12.869Z,98895.72
2023-03-24T00:26:41.788Z,98894.00
2023-03-24T00:29:11.807Z,98892.28
2023-03-24T00:31:40.446Z,98888.81
2023-03-24T00:34:10.444Z,98878.38
2023-03-24T00:36:37.890Z,98874.91
2023-03-24T00:39:06.547Z,98879.25
2023-03-24T00:41:34.933Z,98877.53
2023-03-24T00:44:06.195Z,98874.94
2023-03-24T00:46:35.413Z,98871.47
2023-03-24T00:49:06.393Z,98861.91
2023-03-24T00:51:37.483Z,98860.16
2023-03-24T00:54:06.094Z,98850.63
2023-03-24T00:56:35.863Z,98854.09
2023-03-24T00:59:04.291Z,98846.34
2023-03-24T01:01:34.952Z,98842.00
2023-03-24T01:04:06.106Z,98834.22
2023-03-24T01:06:37.083Z,98830.75
2023-03-24T01:09:06.272Z,98831.59
2023-03-24T01:11:40.297Z,98828.13
2023-03-24T01:14:09.777Z,98831.59
2023-03-24T01:16:37.544Z,98825.53
2023-03-24T01:19:05.567Z,98825.56
2023-03-24T01:21:35.298Z,98811.66
2023-03-24T01:24:05.124Z,98817.75
2023-03-24T01:26:32.948Z,98815.16
2023-03-24T01:29:00.410Z,98806.47
2023-03-24T01:31:27.912Z,98808.19
2023-03-24T01:33:55.968Z,98803.03
2023-03-24T01:36:23.530Z,98800.38
2023-03-24T01:38:50.993Z,98791.69
2023-03-24T01:41:18.970Z,98796.03
2023-03-24T01:43:46.428Z,98790.88
2023-03-24T01:46:15.490Z,98794.34
2023-03-24T01:48:43.436Z,98796.97
2023-03-24T01:51:35.265Z,98791.78
2023-03-24T01:54:27.571Z,98796.97
2023-03-24T01:56:59.804Z,98798.72
2023-03-24T01:59:31.255Z,98795.25
2023-03-24T02:02:03.594Z,98797.88
2023-03-24T02:04:34.882Z,98805.66
2023-03-24T02:07:12.810Z,98797.88
2023-03-24T02:09:40.527Z,98787.47
2023-03-24T02:12:08.385Z,98777.03
2023-03-24T02:14:36.298Z,98782.22
2023-03-24T02:17:19.436Z,98787.41
2023-03-24T02:20:11.362Z,98787.41
2023-03-24T02:23:04.223Z,98788.31
2023-03-24T02:25:52.273Z,98782.25
2023-03-24T02:28:36.995Z,98782.25
2023-03-24T02:31:38.790Z,98792.62
2023-03-24T02:34:25.964Z,98787.47
2023-03-24T02:37:12.986Z,98778.75
2023-03-24T02:39:49.622Z,98790.91
2023-03-24T02:42:32.018Z,98795.25
2023-03-24T02:45:35.429Z,98788.31
2023-03-24T02:48:23.774Z,98784.88
2023-03-24T02:50:51.811Z,98783.13
2023-03-24T02:53:38.281Z,98777.06
2023-03-24T02:56:12.696Z,98767.53
2023-03-24T02:58:52.122Z,98763.22
2023-03-24T03:01:31.784Z,98758.00
2023-03-24T03:04:07.627Z,98756.25
2023-03-24T03:06:40.493Z,98763.22
2023-03-24T03:09:11.120Z,98761.47
2023-03-24T03:11:45.691Z,98751.94
2023-03-24T03:14:37.989Z,98747.59
2023-03-24T03:17:15.965Z,98734.56
2023-03-24T03:19:53.274Z,98751.00
2023-03-24T03:22:23.957Z,98763.06
2023-03-24T03:24:53.666Z,98756.16
2023-03-24T03:27:27.237Z,98742.34
2023-03-24T03:30:00.402Z,98742.41
2023-03-24T03:32:32.489Z,98742.38
2023-03-24T03:35:09.497Z,98753.66
2023-03-24T03:37:47.368Z,98751.94
2023-03-24T03:40:19.944Z,98760.59
2023-03-24T03:42:48.880Z,98754.50
2023-03-24T03:45:16.542Z,98758.00
2023-03-24T03:47:44.515Z,98755.38
2023-03-24T03:50:13.133Z,98753.66
2023-03-24T03:52:41.715Z,98744.13
2023-03-24T03:55:09.652Z,98756.25
2023-03-24T03:57:38.229Z,98742.44
2023-03-24T04:00:14.771Z,98744.09
2023-03-24T04:03:22.412Z,98751.03
2023-03-24T04:05:54.068Z,98742.34
2023-03-24T04:08:40.874Z,98737.16
2023-03-24T04:11:39.622Z,98725.88
2023-03-24T04:14:29.346Z,98726.78
2023-03-24T04:16:57.572Z,98737.13
2023-03-24T04:19:30.548Z,98737.13
2023-03-24T04:22:38.421Z,98741.44
2023-03-24T04:25:50.005Z,98732.78
2023-03-24T04:28:26.781Z,98737.09
2023-03-24T04:31:07.447Z,98739.69
2023-03-24T04:33:41.080Z,98737.09
2023-03-24T04:36:32.614Z,98736.25
2023-03-24T04:39:05.230Z,98724.12
2023-03-24T04:41:33.953Z,98729.31
2023-03-24T04:44:03.360Z,98737.97
2023-03-24T04:46:32.760Z,98736.22
2023-03-24T04:49:06.975Z,98737.97
2023-03-24T04:51:35.889Z,98738.00
2023-03-24T04:54:04.011Z,98738.81
2023-03-24T04:56:41.052Z,98738.78
2023-03-24T04:59:13.008Z,98736.19
2023-03-24T05:01:41.216Z,98744.88
2023-03-24T05:04:10.411Z,98745.72
2023-03-24T05:06:40.106Z,98749.22
2023-03-24T05:09:07.969Z,98750.91
2023-03-24T05:11:35.498Z,98757.78
2023-03-24T05:14:04.188Z,98754.28
2023-03-24T05:16:31.757Z,98765.63
2023-03-24T05:18:59.670Z,98766.50
2023-03-24T05:21:33.558Z,98762.19
2023-03-24T05:24:02.340Z,98762.22
2023-03-24T05:26:33.164Z,98757.84
2023-03-24T05:29:03.484Z,98759.63
2023-03-24T05:31:31.422Z,98753.63
2023-03-24T05:33:59.913Z,98753.59
2023-03-24T05:36:47.513Z,98759.69
2023-03-24T05:39:15.655Z,98761.41
2023-03-24T05:41:45.685Z,98762.25
2023-03-24T05:44:21.647Z,98759.69
2023-03-24T05:46:50.803Z,98759.69
2023-03-24T05:49:18.350Z,98770.12
2023-03-24T05:51:46.490Z,98768.38
2023-03-24T06:16:45.291Z,98764.84
2023-03-24T06:19:13.839Z,98776.16
2023-03-24T06:21:42.005Z,98775.31
2023-03-24T06:24:10.638Z,98771.88
2023-03-24T06:26:38.356Z,98773.56
2023-03-24T06:29:05.861Z,98769.22
2023-03-24T06:31:34.525Z,98771.69
2023-03-24T06:34:02.947Z,98776.97
2023-03-24T06:36:30.627Z,98779.56
2023-03-24T06:38:58.174Z,98768.16
2023-03-24T06:41:27.465Z,98776.09
2023-03-24T06:43:55.135Z,98753.50
2023-03-24T06:46:22.757Z,98754.34
2023-03-24T06:48:51.033Z,98762.12
2023-03-24T06:51:19.962Z,98754.19
2023-03-24T06:53:47.423Z,98755.06
2023-03-24T06:56:17.252Z,98749.91
2023-03-24T06:58:45.096Z,98750.87
2023-03-24T07:01:15.021Z,98740.34
2023-03-24T07:03:43.363Z,98740.31
2023-03-24T07:06:12.065Z,98738.44
2023-03-24T07:08:40.189Z,98734.91
2023-03-24T07:11:09.953Z,98736.59
2023-03-24T07:13:38.235Z,98741.78
2023-03-24T07:16:06.573Z,98739.91
2023-03-24T07:18:36.185Z,98740.69
2023-03-24T07:21:04.222Z,98746.69
2023-03-24T07:23:33.157Z,98737.91
2023-03-24T07:26:00.947Z,98742.09
2023-03-24T07:28:30.849Z,98734.00
2023-03-24T07:31:02.557Z,98734.28
2023-03-24T07:33:31.913Z,98727.22
2023-03-24T07:35:59.687Z,98729.09
2023-03-24T07:38:27.274Z,98723.84
2023-03-24T07:40:55.757Z,98726.03
2023-03-24T07:43:23.314Z,98728.91
2023-03-24T07:45:51.193Z,98730.31
2023-03-24T07:48:19.007Z,98730.38
2023-03-24T07:50:46.637Z,98732.16
2023-03-24T07:53:20.100Z,98743.47
2023-03-24T07:55:48.726Z,98735.06
2023-03-24T07:58:17.001Z,98728.78
2023-03-24T08:00:48.203Z,98729.69
2023-03-24T08:03:17.459Z,98730.81
2023-03-24T08:05:46.362Z,98737.13
2023-03-24T08:08:14.511Z,98731.78
2023-03-24T08:10:42.741Z,98729.03
2023-03-24T08:13:10.164Z,98730.88
2023-03-24T08:15:38.048Z,98717.91
2023-03-24T08:18:06.514Z,98721.37
2023-03-24T08:20:34.078Z,98719.97
2023-03-24T08:23:04.703Z,98712.47
2023-03-24T08:25:32.692Z,98713.97
2023-03-24T08:28:00.550Z,98712.28
2023-03-24T08:30:28.292Z,98699.59
2023-03-24T08:32:59.262Z,98696.09
2023-03-24T08:35:29.564Z,98688.31
2023-03-24T08:37:59.386Z,98690.78
2023-03-24T08:40:28.276Z,98685.31
2023-03-24T08:43:01.253Z,98675.56
2023-03-24T08:45:31.075Z,98680.09
2023-03-24T08:48:01.452Z,98677.06
2023-03-24T08:50:32.788Z,98682.94
2023-03-24T08:53:00.427Z,98675.28
2023-03-24T08:55:28.559Z,98679.41
2023-03-24T08:57:56.345Z,98671.78
2023-03-24T09:00:24.686Z,98676.31
2023-03-24T09:02:54.108Z,98671.16
2023-03-24T09:05:36.579Z,98671.97
2023-03-24T09:08:12.502Z,98674.81
2023-03-24T09:10:41.749Z,98675.28
2023-03-24T09:13:09.832Z,98675.69
2023-03-24T09:15:37.426Z,98661.09
2023-03-24T09:18:05.383Z,98663.03
2023-03-24T09:20:32.842Z,98661.84
2023-03-24T09:23:00.310Z,98673.44
2023-03-24T09:25:27.983Z,98663.97
2023-03-24T09:27:57.017Z,98663.94
2023-03-24T09:30:24.571Z,98657.84
2023-03-24T09:32:52.346Z,98655.75
2023-03-24T09:35:19.965Z,98643.56
2023-03-24T09:37:47.434Z,98643.38
2023-03-24T09:40:26.771Z,98644.78
2023-03-24T09:42:59.983Z,98640.34
2023-03-24T09:45:33.025Z,98644.87
2023-03-24T09:48:04.594Z,98638.63
2023-03-24T09:50:42.195Z,98633.22
2023-03-24T09:53:54.483Z,98626.66
2023-03-24T09:56:23.604Z,98628.13
2023-03-24T09:59:02.535Z,98624.19
2023-03-24T10:01:30.353Z,98635.09
2023-03-24T10:03:59.581Z,98620.53
2023-03-24T10:06:31.079Z,98613.69
2023-03-24T10:09:06.064Z,98612.06
2023-03-24T10:11:49.143Z,98604.16
2023-03-24T10:14:47.905Z,98609.75
2023-03-24T10:17:24.436Z,98585.91
2023-03-24T10:20:00.216Z,98589.72
2023-03-24T10:22:42.574Z,98583.34
2023-03-24T10:25:54.985Z,98584.69
2023-03-24T10:29:05.530Z,98579.34
2023-03-24T10:31:35.937Z,98577.44
2023-03-24T10:34:03.399Z,98555.56
2023-03-24T10:36:31.615Z,98575.53
2023-03-24T10:39:03.963Z,98564.72
2023-03-24T10:41:42.523Z,98570.16
2023-03-24T10:44:12.750Z,98553.94
2023-03-24T10:46:47.086Z,98559.56
2023-03-24T10:49:19.841Z,98553.69
2023-03-24T10:51:54.043Z,98561.19
2023-03-24T10:54:23.713Z,98557.75
2023-03-24T10:57:02.526Z,98557.00
2023-03-24T10:59:35.824Z,98558.38
2023-03-24T11:02:09.481Z,98549.75
2023-03-24T11:04:40.855Z,98549.53
2023-03-24T11:07:21.029Z,98540.78
2023-03-24T11:10:02.063Z,98534.69
2023-03-24T11:12:35.098Z,98534.91
2023-03-24T11:15:30.986Z,98524.31
2023-03-24T11:18:03.805Z,98525.56
2023-03-24T11:20:33.006Z,98518.34
2023-03-24T11:23:05.646Z,98513.16
2023-03-24T11:25:36.918Z,98514.84
2023-03-24T11:28:11.086Z,98501.88
2023-03-24T11:30:47.907Z,98497.66
2023-03-24T11:33:20.731Z,98493.16
2023-03-24T11:36:13.084Z,98497.13
2023-03-24T11:38:40.685Z,98485.44
2023-03-24T11:41:19.625Z,98470.63
2023-03-24T11:43:47.088Z,98474.84
2023-03-24T11:46:20.785Z,98474.84
2023-03-24T11:48:52.544Z,98484.66
2023-03-24T11:51:35.418Z,98473.56
2023-03-24T11:54:05.802Z,98454.03
2023-03-24T11:56:36.477Z,98470.16
2023-03-24T11:59:18.959Z,98471.13
2023-03-24T12:01:59.281Z,98467.28
2023-03-24T12:05:17.211Z,98455.44
2023-03-24T12:08:01.817Z,98449.72
2023-03-24T12:10:38.551Z,98447.72
2023-03-24T12:13:33.139Z,98455.38
2023-03-24T12:16:26.039Z,98434.72
2023-03-24T12:19:05.727Z,98443.50
2023-03-24T12:21:51.762Z,98442.97
2023-03-24T12:24:29.432Z,98427.19
2023-03-24T12:27:00.797Z,98426.81
2023-03-24T12:29:40.869Z,98423.69
2023-03-24T12:32:32.198Z,98418.78
2023-03-24T12:35:29.281Z,98408.37
2023-03-24T12:38:06.100Z,98409.06
2023-03-24T12:40:50.508Z,98410.47
2023-03-24T12:43:40.114Z,98402.09
2023-03-24T12:46:31.562Z,98389.56
2023-03-24T12:49:16.642Z,98390.56
2023-03-24T12:52:16.726Z,98386.69
2023-03-24T12:54:49.029Z,98392.84
2023-03-24T12:57:18.487Z,98391.28
2023-03-24T12:59:59.910Z,98401.16
2023-03-24T13:02:32.543Z,98390.94
2023-03-24T13:05:06.052Z,98383.19
2023-03-24T13:07:39.206Z,98379.53
2023-03-24T13:10:23.014Z,98375.44
2023-03-24T13:13:16.382Z,98382.78
2023-03-24T13:15:50.910Z,98376.69
2023-03-24T13:18:42.249Z,98368.06
2023-03-24T13:21:21.344Z,98363.41
2023-03-24T13:23:55.192Z,98365.97
2023-03-24T13:26:41.212Z,98352.00
2023-03-24T13:29:45.601Z,98355.03
2023-03-24T13:32:22.598Z,98347.53
2023-03-24T13:35:13.691Z,98360.09
2023-03-24T13:38:09.775Z,98348.19
2023-03-24T13:40:39.824Z,98348.09
2023-03-24T13:43:11.957Z,98336.28
2023-03-24T13:45:42.338Z,98339.84
2023-03-24T13:48:09.987Z,98339.41
2023-03-24T13:50:39.858Z,98342.59
2023-03-24T13:53:14.083Z,98337.56
2023-03-24T13:55:49.515Z,98337.81
2023-03-24T13:58:26.234Z,98324.00
2023-03-24T14:01:09.248Z,98327.03
2023-03-24T14:03:45.031Z,98323.75
2023-03-24T14:06:17.466Z,98326.63
2023-03-24T14:08:55.878Z,98325.19
2023-03-24T14:11:32.349Z,98313.91
2023-03-24T14:14:07.362Z,98318.16
2023-03-24T14:16:43.088Z,98314.31
2023-03-24T14:19:17.722Z,98310.81
2023-03-24T14:21:45.435Z,98314.97
2023-03-24T14:24:26.202Z,98307.59
2023-03-24T14:26:53.670Z,98312.72
2023-03-24T14:29:37.448Z,98309.13
2023-03-24T14:32:17.251Z,98309.53
2023-03-24T14:34:57.002Z,98312.31
2023-03-24T14:37:25.941Z,98311.84
2023-03-24T14:39:57.414Z,98309.69
2023-03-24T14:42:34.145Z,98305.00
2023-03-24T14:45:07.563Z,98298.31
2023-03-24T14:47:41.708Z,98302.75
2023-03-24T14:50:21.288Z,98304.47
2023-03-24T14:52:52.992Z,98300.16
2023-03-24T14:55:21.840Z,98300.97
2023-03-24T14:57:56.367Z,98290.09
2023-03-24T15:00:26.050Z,98290.88
2023-03-24T15:02:57.134Z,98294.53
2023-03-24T15:05:31.959Z,98300.34
2023-03-24T15:08:35.056Z,98292.56
2023-03-24T15:11:06.234Z,98294.88
2023-03-24T15:13:44.209Z,98286.50
2023-03-24T15:16:11.970Z,98288.22
2023-03-24T15:19:02.057Z,98278.06
2023-03-24T15:21:36.062Z,98281.34
2023-03-24T15:24:23.361Z,98284.75
2023-03-24T15:27:19.298Z,98272.78
2023-03-24T15:29:47.002Z,98282.59
2023-03-24T15:32:20.370Z,98277.91
2023-03-24T15:34:52.527Z,98287.75
2023-03-24T15:37:31.290Z,98277.78
2023-03-24T15:40:09.019Z,98276.22
2023-03-24T15:42:44.607Z,98272.38
2023-03-24T15:45:22.229Z,98271.94
2023-03-24T15:47:52.024Z,98282.19
2023-03-24T15:50:38.328Z,98273.94
2023-03-24T15:53:15.786Z,98285.97
2023-03-24T15:55:43.771Z,98278.22
2023-03-24T15:58:33.511Z,98277.72
2023-03-24T16:01:02.454Z,98268.88
2023-03-24T16:03:30.976Z,98275.66
2023-03-24T16:05:58.723Z,98284.22
2023-03-24T16:08:36.060Z,98277.34
2023-03-24T16:11:07.877Z,98273.81
2023-03-24T16:13:35.500Z,98267.88
2023-03-24T16:16:15.597Z,98266.03
2023-03-24T16:18:48.704Z,98274.66
2023-03-24T16:21:29.828Z,98267.69
2023-03-24T16:23:58.446Z,98267.69
2023-03-24T16:26:30.782Z,98267.56
2023-03-24T16:29:14.177Z,98259.84
2023-03-24T16:31:41.593Z,98262.16
2023-03-24T16:34:09.283Z,98259.19
2023-03-24T16:36:36.835Z,98264.56
2023-03-24T16:39:13.931Z,98267.84
2023-03-24T16:41:41.624Z,98266.69
2023-03-24T16:44:09.073Z,98263.37
2023-03-24T16:46:37.115Z,98256.53
2023-03-24T16:49:07.048Z,98260.47
2023-03-24T16:51:34.876Z,98253.94
2023-03-24T16:54:02.418Z,98250.59
2023-03-24T16:56:30.679Z,98251.31
2023-03-24T16:58:58.270Z,98258.72
2023-03-24T17:01:38.212Z,98257.06
2023-03-24T17:04:10.916Z,98248.97
2023-03-24T17:06:41.448Z,98256.19
2023-03-24T17:09:10.094Z,98245.72
2023-03-24T17:11:40.485Z,98247.69
2023-03-24T17:14:12.419Z,98250.38
2023-03-24T17:16:45.893Z,98249.63
2023-03-24T17:19:15.650Z,98243.09
2023-03-24T17:21:49.327Z,98253.06
2023-03-24T17:24:17.021Z,98241.50
2023-03-24T17:26:45.277Z,98248.66
2023-03-24T17:29:13.408Z,98245.00
2023-03-24T17:31:43.460Z,98249.22
2023-03-24T17:34:21.499Z,98245.34
2023-03-24T17:36:51.650Z,98250.81
2023-03-24T17:39:22.599Z,98247.84
2023-03-24T17:41:50.860Z,98248.97
2023-03-24T17:44:19.147Z,98239.41
2023-03-24T17:46:48.188Z,98247.03
2023-03-24T17:49:16.525Z,98246.06
2023-03-24T17:51:44.414Z,98243.44
2023-03-24T17:54:13.523Z,98237.22
2023-03-24T17:56:41.939Z,98243.06
2023-03-24T17:59:10.130Z,98239.69
2023-03-24T18:01:39.695Z,98239.63
2023-03-24T18:04:08.547Z,98242.56
2023-03-24T18:06:38.531Z,98248.31
2023-03-24T18:09:07.514Z,98243.44
2023-03-24T18:11:36.392Z,98241.25
2023-03-24T18:14:04.619Z,98254.97
2023-03-24T18:16:35.646Z,98260.91
2023-03-24T18:19:07.255Z,98259.34
2023-03-24T18:21:36.268Z,98260.31
2023-03-24T18:24:05.758Z,98265.38
2023-03-24T18:26:35.414Z,98274.38
2023-03-24T18:29:04.157Z,98263.06
2023-03-24T18:31:34.308Z,98262.94
2023-03-24T18:34:04.092Z,98257.22
2023-03-24T18:36:33.341Z,98247.28
2023-03-24T18:39:07.253Z,98262.66
2023-03-24T18:41:40.200Z,98259.97
2023-03-24T18:44:11.707Z,98265.88
2023-03-24T18:46:40.836Z,98252.88
2023-03-24T18:49:13.663Z,98264.31
2023-03-24T18:51:44.022Z,98254.69
2023-03-24T18:54:14.284Z,98269.50
2023-03-24T18:56:43.517Z,98258.44
2023-03-24T18:59:11.899Z,98263.50
2023-03-24T19:01:40.378Z,98245.88
2023-03-24T19:04:09.748Z,98251.00
2023-03-24T19:06:42.718Z,98244.28
2023-03-24T19:09:13.347Z,98257.72
2023-03-24T19:11:43.470Z,98247.97
2023-03-24T19:14:12.749Z,98240.63
2023-03-24T19:16:41.697Z,98247.37
2023-03-24T19:19:10.471Z,98248.25
2023-03-24T19:21:42.480Z,98246.38
2023-03-24T19:24:11.688Z,98253.22
2023-03-24T19:26:40.882Z,98249.97
2023-03-24T19:29:09.754Z,98249.31
2023-03-24T19:31:38.103Z,98244.97
2023-03-24T19:34:07.353Z,98256.84
2023-03-24T19:36:36.316Z,98253.50
2023-03-24T19:39:04.826Z,98238.97
2023-03-24T19:41:33.891Z,98252.25
2023-03-24T19:44:02.776Z,98251.59
2023-03-24T19:46:30.960Z,98247.78
2023-03-24T19:49:00.143Z,98242.44
2023-03-24T19:51:29.018Z,98244.88
2023-03-24T19:53:57.467Z,98243.19
2023-03-24T19:56:27.657Z,98250.41
2023-03-24T19:58:55.869Z,98252.41
2023-03-24T20:01:28.199Z,98246.16
2023-03-24T20:03:57.512Z,98235.59
2023-03-24T20:06:26.760Z,98239.16
2023-03-24T20:08:56.675Z,98233.25
2023-03-24T20:11:26.235Z,98243.13
2023-03-24T20:13:54.612Z,98232.94
2023-03-24T20:16:24.825Z,98231.06
2023-03-24T20:18:53.520Z,98226.75
2023-03-24T20:21:23.287Z,98239.28
2023-03-24T20:23:54.323Z,98241.13
2023-03-24T20:26:22.809Z,98250.97
2023-03-24T20:28:53.900Z,98268.59
2023-03-24T20:31:25.207Z,98263.66
2023-03-24T20:33:54.320Z,98264.28
2023-03-24T20:36:26.559Z,98261.81
2023-03-24T20:39:00.050Z,98262.31
2023-03-24T20:41:32.457Z,98261.84
2023-03-24T20:44:01.088Z,98271.19
2023-03-24T20:46:31.055Z,98264.50
2023-03-24T20:49:01.186Z,98259.53
2023-03-24T20:51:30.334Z,98251.62
2023-03-24T20:54:02.332Z,98259.28
2023-03-24T20:56:31.637Z,98254.87
2023-03-24T20:59:01.159Z,98255.34
2023-03-24T21:01:41.987Z,98254.87
2023-03-24T21:04:11.325Z,98251.06
2023-03-24T21:06:40.962Z,98247.94
2023-03-24T21:09:09.703Z,98250.91
2023-03-24T21:11:39.470Z,98249.66
2023-03-24T21:14:08.587Z,98259.41
2023-03-24T21:16:38.198Z,98255.22
2023-03-24T21:19:07.072Z,98258.19
2023-03-24T21:21:38.584Z,98252.47
2023-03-24T21:24:07.809Z,98258.75
2023-03-24T21:26:35.866Z,98257.06
2023-03-24T21:29:04.702Z,98253.38
2023-03-24T21:31:33.368Z,98260.94
2023-03-24T21:34:00.893Z,98260.44
2023-03-24T21:36:30.353Z,98264.81
2023-03-24T21:38:58.661Z,98261.78
2023-03-24T21:41:26.376Z,98261.59
2023-03-24T21:43:54.574Z,98271.97
2023-03-24T21:46:24.333Z,98275.69
2023-03-24T21:48:55.803Z,98278.69
2023-03-24T21:51:25.732Z,98277.84
2023-03-24T21:53:56.440Z,98281.06
2023-03-24T21:56:24.135Z,98290.25
2023-03-24T21:58:54.878Z,98286.91
2023-03-24T22:01:22.789Z,98294.75
2023-03-24T22:03:51.081Z,98287.88
2023-03-24T22:06:18.508Z,98289.34
2023-03-24T22:08:48.762Z,98292.56
2023-03-24T22:11:18.837Z,98285.22
2023-03-24T22:13:47.643Z,98290.09
2023-03-24T22:16:15.456Z,98284.09
2023-03-24T22:18:43.169Z,98281.28
2023-03-24T22:21:11.073Z,98272.69
2023-03-24T22:23:40.593Z,98280.91
2023-03-24T22:26:14.132Z,98269.59
2023-03-24T22:28:42.394Z,98268.28
2023-03-24T22:31:14.845Z,98262.59
2023-03-24T22:33:42.739Z,98259.12
2023-03-24T22:36:10.888Z,98251.84
2023-03-24T22:38:38.517Z,98254.34
2023-03-24T22:41:08.249Z,98250.75
2023-03-24T22:43:36.565Z,98247.22
2023-03-24T22:46:04.191Z,98253.03
2023-03-24T22:48:31.611Z,98253.25
2023-03-24T22:50:59.357Z,98250.44
2023-03-24T22:53:26.754Z,98258.09
2023-03-24T22:55:54.277Z,98259.69
2023-03-24T22:58:22.261Z,98257.06
2023-03-24T23:00:53.594Z,98248.16
2023-03-24T23:03:21.056Z,98246.84
2023-03-24T23:05:48.997Z,98251.03
2023-03-24T23:08:16.535Z,98242.78
2023-03-24T23:10:45.371Z,98243.28
2023-03-24T23:13:13.349Z,98247.06
2023-03-24T23:15:42.679Z,98247.06
2023-03-24T23:18:10.849Z,98238.19
2023-03-24T23:20:38.660Z,98247.25
2023-03-24T23:23:07.113Z,98232.91
2023-03-24T23:25:45.463Z,98242.13
2023-03-24T23:28:13.360Z,98240.78
2023-03-24T23:30:41.348Z,98236.81
2023-03-24T23:33:09.018Z,98239.50
2023-03-24T23:35:37.601Z,98239.97
2023-03-24T23:38:06.740Z,98241.41
2023-03-24T23:40:34.571Z,98246.59
2023-03-24T23:43:03.468Z,98229.66
2023-03-24T23:45:30.905Z,98238.03
2023-03-24T23:47:58.360Z,98236.22
2023-03-24T23:50:27.215Z,98232.44
2023-03-24T23:52:55.374Z,98227.56
2023-03-24T23:55:23.172Z,98230.09
2023-03-24T23:57:50.813Z,98228.03
